createdAt,value
2018-12-31T00:02:09.467Z,8.83
2018-12-31T00:04:40.384Z,9.80
2018-12-31T00:07:11.302Z,15.97
2018-12-31T00:09:42.234Z,6.00
2018-12-31T00:12:13.208Z,5.03
2018-12-31T00:14:44.175Z,5.07
2018-12-31T00:17:15.090Z,6.17
2018-12-31T00:19:46.002Z,4.00
2018-12-31T00:22:16.954Z,5.40
2018-12-31T00:24:47.954Z,7.30
2018-12-31T00:27:18.873Z,6.97
2018-12-31T00:29:49.780Z,5.73
2018-12-31T00:32:20.704Z,7.37
2018-12-31T00:34:51.611Z,6.43
2018-12-31T00:37:22.549Z,10.03
2018-12-31T00:39:53.467Z,7.83
2018-12-31T00:42:24.428Z,6.63
2018-12-31T00:44:55.299Z,7.47
2018-12-31T00:47:26.262Z,7.60
2018-12-31T00:49:57.521Z,5.73
2018-12-31T00:52:28.424Z,7.47
2018-12-31T00:54:59.379Z,10.07
2018-12-31T00:57:30.300Z,8.30
2018-12-31T01:00:01.325Z,7.70
2018-12-31T01:02:33.105Z,8.13
2018-12-31T01:05:04.073Z,8.10
2018-12-31T01:07:34.975Z,8.90
2018-12-31T01:10:06.107Z,8.90
2018-12-31T01:12:37.064Z,7.83
2018-12-31T01:15:08.042Z,10.77
2018-12-31T01:17:39.013Z,7.50
2018-12-31T01:20:09.959Z,5.27
2018-12-31T01:22:40.893Z,8.43
2018-12-31T01:25:11.800Z,9.97
2018-12-31T01:27:42.745Z,7.63
2018-12-31T01:30:13.669Z,6.67
2018-12-31T01:32:44.648Z,7.67
2018-12-31T01:35:15.565Z,8.83
2018-12-31T01:37:46.505Z,6.43
2018-12-31T01:40:17.489Z,10.83
2018-12-31T01:42:48.443Z,7.87
2018-12-31T01:45:19.368Z,10.57
2018-12-31T01:47:50.283Z,7.77
2018-12-31T01:50:21.220Z,9.00
2018-12-31T01:52:52.141Z,13.10
2018-12-31T01:55:23.158Z,12.93
2018-12-31T01:57:54.057Z,9.33
2018-12-31T02:00:25.027Z,11.37
2018-12-31T02:02:55.943Z,8.73
2018-12-31T02:05:26.880Z,8.90
2018-12-31T02:07:57.809Z,10.03
2018-12-31T02:10:28.750Z,10.90
2018-12-31T02:12:59.696Z,9.57
2018-12-31T02:15:30.647Z,9.07
2018-12-31T02:18:01.571Z,12.37
2018-12-31T02:20:32.542Z,14.30
2018-12-31T02:23:03.473Z,10.37
2018-12-31T02:25:34.393Z,10.97
2018-12-31T02:28:05.659Z,12.53
2018-12-31T02:30:36.661Z,10.53
2018-12-31T02:33:07.602Z,10.63
2018-12-31T02:35:38.596Z,10.27
2018-12-31T02:38:09.532Z,8.33
2018-12-31T02:40:40.437Z,8.80
2018-12-31T02:43:11.590Z,12.10
2018-12-31T02:45:42.510Z,10.83
2018-12-31T02:48:13.745Z,14.33
2018-12-31T02:50:47.755Z,9.73
2018-12-31T02:53:21.094Z,9.87
2018-12-31T02:55:52.015Z,11.00
2018-12-31T02:58:22.958Z,11.80
2018-12-31T03:00:53.877Z,15.47
2018-12-31T03:03:24.788Z,14.23
2018-12-31T03:05:55.744Z,10.03
2018-12-31T03:08:29.766Z,13.33
2018-12-31T03:11:00.708Z,13.37
2018-12-31T03:13:36.455Z,12.17
2018-12-31T03:16:07.418Z,15.90
2018-12-31T03:18:38.407Z,16.47
2018-12-31T03:21:09.397Z,10.77
2018-12-31T03:23:40.394Z,11.60
2018-12-31T03:26:11.313Z,17.70
2018-12-31T03:28:42.346Z,15.37
2018-12-31T03:31:13.331Z,14.20
2018-12-31T03:33:44.222Z,10.13
2018-12-31T03:36:15.152Z,17.40
2018-12-31T03:38:46.108Z,17.43
2018-12-31T03:41:17.033Z,18.00
2018-12-31T03:43:47.981Z,20.57
2018-12-31T03:46:18.917Z,16.87
2018-12-31T03:48:49.842Z,18.97
2018-12-31T03:51:20.836Z,27.23
2018-12-31T03:53:51.755Z,16.67
2018-12-31T03:56:22.659Z,19.67
2018-12-31T03:58:53.569Z,20.70
2018-12-31T04:01:24.491Z,23.70
2018-12-31T04:03:55.406Z,25.50
2018-12-31T04:06:26.326Z,21.50
2018-12-31T04:08:57.238Z,23.53
2018-12-31T04:11:28.162Z,23.47
2018-12-31T04:13:59.071Z,22.57
2018-12-31T04:16:29.999Z,27.07
2018-12-31T04:19:02.003Z,25.67
2018-12-31T04:21:32.927Z,30.47
2018-12-31T04:24:03.864Z,26.97
2018-12-31T04:26:34.803Z,22.50
2018-12-31T04:29:05.759Z,24.07
2018-12-31T04:31:36.667Z,23.73
2018-12-31T04:34:07.591Z,28.50
2018-12-31T04:36:38.535Z,30.13
2018-12-31T04:39:09.471Z,23.10
2018-12-31T04:41:40.393Z,35.53
2018-12-31T04:44:11.307Z,42.57
2018-12-31T04:46:42.236Z,45.50
2018-12-31T04:49:13.220Z,40.63
2018-12-31T04:51:44.138Z,49.03
2018-12-31T04:54:15.081Z,40.20
2018-12-31T04:56:46.073Z,61.97
2018-12-31T04:59:17.021Z,49.67
2018-12-31T05:01:47.989Z,57.93
2018-12-31T05:04:18.948Z,67.03
2018-12-31T05:06:49.852Z,69.73
2018-12-31T05:09:20.794Z,72.67
2018-12-31T05:11:51.705Z,67.47
2018-12-31T05:14:22.632Z,77.37
2018-12-31T05:16:53.580Z,77.83
2018-12-31T05:19:24.508Z,80.77
2018-12-31T05:21:55.444Z,72.23
2018-12-31T05:24:26.449Z,78.97
2018-12-31T05:26:57.429Z,91.50
2018-12-31T05:29:28.367Z,72.03
2018-12-31T05:31:59.284Z,78.10
2018-12-31T05:34:30.208Z,81.60
2018-12-31T05:37:01.133Z,84.20
2018-12-31T05:39:32.062Z,81.73
2018-12-31T05:42:02.988Z,85.50
2018-12-31T05:44:33.925Z,85.10
2018-12-31T05:47:07.700Z,83.60
2018-12-31T05:49:38.693Z,84.60
2018-12-31T05:52:09.605Z,79.47
2018-12-31T05:54:40.661Z,79.00
2018-12-31T05:57:11.655Z,78.53
2018-12-31T05:59:42.550Z,84.30
2018-12-31T06:02:13.478Z,77.70
2018-12-31T06:04:44.423Z,74.03
2018-12-31T06:07:15.335Z,70.53
2018-12-31T06:09:46.252Z,73.87
2018-12-31T06:12:17.165Z,76.23
2018-12-31T06:14:49.149Z,74.03
2018-12-31T06:17:20.075Z,71.80
2018-12-31T06:19:51.006Z,72.50
2018-12-31T06:22:21.956Z,68.70
2018-12-31T06:24:52.879Z,75.30
2018-12-31T06:27:23.822Z,83.83
2018-12-31T06:29:54.749Z,64.57
2018-12-31T06:32:25.660Z,68.93
2018-12-31T06:34:56.868Z,63.10
2018-12-31T06:37:27.800Z,62.63
2018-12-31T06:39:58.698Z,59.10
2018-12-31T06:42:29.640Z,59.93
2018-12-31T06:45:00.611Z,56.60
2018-12-31T06:47:31.567Z,58.23
2018-12-31T06:50:02.486Z,59.60
2018-12-31T06:52:34.563Z,56.50
2018-12-31T06:55:05.659Z,55.93
2018-12-31T06:57:36.604Z,49.93
2018-12-31T07:00:07.604Z,51.10
2018-12-31T07:02:38.593Z,57.43
2018-12-31T07:05:09.556Z,50.40
2018-12-31T07:07:40.611Z,55.27
2018-12-31T07:10:11.600Z,53.37
2018-12-31T07:12:42.582Z,44.80
2018-12-31T07:15:13.496Z,48.93
2018-12-31T07:17:44.449Z,48.10
2018-12-31T07:20:15.400Z,39.00
2018-12-31T07:22:46.481Z,45.53
2018-12-31T07:25:17.416Z,48.67
2018-12-31T07:27:48.384Z,47.37
2018-12-31T07:30:19.396Z,43.90
2018-12-31T07:32:50.398Z,50.70
2018-12-31T07:35:21.306Z,53.07
2018-12-31T07:37:52.210Z,52.10
2018-12-31T07:40:23.188Z,41.80
2018-12-31T07:42:54.097Z,49.23
2018-12-31T07:45:25.018Z,53.40
2018-12-31T07:47:56.040Z,56.60
2018-12-31T07:50:28.163Z,60.77
2018-12-31T07:52:59.237Z,52.60
2018-12-31T07:55:30.226Z,59.03
2018-12-31T07:58:01.147Z,113.60
2018-12-31T08:00:32.126Z,74.50
2018-12-31T08:03:03.067Z,169.57
2018-12-31T08:05:34.067Z,115.57
2018-12-31T08:08:05.033Z,115.83
2018-12-31T08:10:36.086Z,69.37
2018-12-31T08:13:07.118Z,51.50
2018-12-31T08:15:38.272Z,56.80
2018-12-31T08:18:09.313Z,56.77
2018-12-31T08:20:40.276Z,56.60
2018-12-31T08:23:11.218Z,65.00
2018-12-31T08:25:42.170Z,62.13
2018-12-31T08:28:13.112Z,68.37
2018-12-31T08:30:44.149Z,67.93
2018-12-31T08:33:15.039Z,63.43
2018-12-31T08:35:45.986Z,46.77
2018-12-31T08:38:16.925Z,55.63
2018-12-31T08:40:47.907Z,55.67
2018-12-31T08:43:18.838Z,60.57
2018-12-31T08:45:49.807Z,71.50
2018-12-31T08:48:20.762Z,59.27
2018-12-31T08:50:51.737Z,66.23
2018-12-31T08:53:22.666Z,66.50
2018-12-31T08:55:53.711Z,70.73
2018-12-31T08:58:24.667Z,62.33
2018-12-31T09:00:55.602Z,57.33
2018-12-31T09:03:26.546Z,60.73
2018-12-31T09:05:57.524Z,52.37
2018-12-31T09:08:28.799Z,54.53
2018-12-31T09:10:59.743Z,52.13
2018-12-31T09:13:30.794Z,97.00
2018-12-31T09:16:01.788Z,56.30
2018-12-31T09:18:32.897Z,55.90
2018-12-31T09:21:03.766Z,52.70
2018-12-31T09:23:34.806Z,55.93
2018-12-31T09:26:05.875Z,62.80
2018-12-31T09:28:36.798Z,60.60
2018-12-31T09:31:07.919Z,62.70
2018-12-31T09:33:38.903Z,57.87
2018-12-31T09:36:09.832Z,45.93
2018-12-31T09:38:40.820Z,51.63
2018-12-31T09:41:11.837Z,52.47
2018-12-31T09:43:42.805Z,50.83
2018-12-31T09:46:13.773Z,55.50
2018-12-31T09:48:44.688Z,46.93
2018-12-31T09:51:15.637Z,54.90
2018-12-31T09:53:46.567Z,47.90
2018-12-31T09:56:17.525Z,50.00
2018-12-31T09:58:48.465Z,53.33
2018-12-31T10:01:19.435Z,45.17
2018-12-31T10:03:50.408Z,51.67
2018-12-31T10:06:21.363Z,47.00
2018-12-31T10:08:52.380Z,50.97
2018-12-31T10:11:23.367Z,47.43
2018-12-31T10:13:54.396Z,49.33
2018-12-31T10:16:25.345Z,45.57
2018-12-31T10:18:56.484Z,45.33
2018-12-31T10:21:27.418Z,45.57
2018-12-31T10:23:58.441Z,42.43
2018-12-31T10:26:29.378Z,40.37
2018-12-31T10:29:00.346Z,39.83
2018-12-31T10:31:31.309Z,38.10
2018-12-31T10:34:02.252Z,47.07
2018-12-31T10:36:33.211Z,41.60
2018-12-31T10:39:05.534Z,43.10
2018-12-31T10:41:36.585Z,39.23
2018-12-31T10:44:07.591Z,38.03
2018-12-31T10:46:38.554Z,41.97
2018-12-31T10:49:09.559Z,37.53
2018-12-31T10:51:40.618Z,44.40
2018-12-31T10:54:11.623Z,40.90
2018-12-31T10:56:42.562Z,42.90
2018-12-31T10:59:13.629Z,38.37
2018-12-31T11:01:44.551Z,44.57
2018-12-31T11:04:15.636Z,46.97
2018-12-31T11:06:46.801Z,41.53
2018-12-31T11:09:17.759Z,38.63
2018-12-31T11:11:48.734Z,39.83
2018-12-31T11:14:19.807Z,42.27
2018-12-31T11:16:50.809Z,40.20
2018-12-31T11:19:21.789Z,48.77
2018-12-31T11:21:52.723Z,41.33
2018-12-31T11:24:23.759Z,45.00
2018-12-31T11:26:54.735Z,48.63
2018-12-31T11:29:25.730Z,44.60
2018-12-31T11:31:56.626Z,33.83
2018-12-31T11:34:27.597Z,38.90
2018-12-31T11:36:58.556Z,39.97
2018-12-31T11:39:30.620Z,36.80
2018-12-31T11:42:01.640Z,39.03
2018-12-31T11:44:32.663Z,45.63
2018-12-31T11:47:03.762Z,43.37
2018-12-31T11:49:34.774Z,38.53
2018-12-31T11:52:05.705Z,34.70
2018-12-31T11:54:36.672Z,34.87
2018-12-31T11:57:07.612Z,40.67
2018-12-31T11:59:38.785Z,36.93
2018-12-31T12:02:09.720Z,29.60
2018-12-31T12:04:40.688Z,29.90
2018-12-31T12:07:11.685Z,31.13
2018-12-31T12:09:42.691Z,36.57
2018-12-31T12:12:13.709Z,37.27
2018-12-31T12:14:44.760Z,30.10
2018-12-31T12:17:15.758Z,34.07
2018-12-31T12:19:46.717Z,35.10
2018-12-31T12:22:17.666Z,30.80
2018-12-31T12:24:48.927Z,38.67
2018-12-31T12:27:19.891Z,41.80
2018-12-31T12:29:51.014Z,36.87
2018-12-31T12:32:22.036Z,43.17
2018-12-31T12:34:52.937Z,32.70
2018-12-31T12:37:23.897Z,38.70
2018-12-31T12:39:54.939Z,38.33
2018-12-31T12:42:26.105Z,38.07
2018-12-31T12:44:57.203Z,36.57
2018-12-31T12:47:28.577Z,33.53
2018-12-31T12:49:59.553Z,34.33
2018-12-31T12:52:30.523Z,31.10
2018-12-31T12:55:01.518Z,32.63
2018-12-31T12:57:35.917Z,36.50
2018-12-31T13:00:07.589Z,35.13
2018-12-31T13:02:38.692Z,28.37
2018-12-31T13:05:10.890Z,30.47
2018-12-31T13:07:42.232Z,30.90
2018-12-31T13:10:13.456Z,30.23
2018-12-31T13:12:44.536Z,29.60
2018-12-31T13:15:15.578Z,37.10
2018-12-31T13:17:46.947Z,36.10
2018-12-31T13:20:21.100Z,35.03
2018-12-31T13:22:52.128Z,40.70
2018-12-31T13:25:23.121Z,38.27
2018-12-31T13:27:54.190Z,35.57
2018-12-31T13:30:25.680Z,34.80
2018-12-31T13:33:00.020Z,33.20
2018-12-31T13:35:33.680Z,36.23
2018-12-31T13:38:04.698Z,41.03
2018-12-31T13:40:35.796Z,42.43
2018-12-31T13:43:06.934Z,59.57
2018-12-31T13:45:38.074Z,46.87
2018-12-31T13:48:36.157Z,45.07
2018-12-31T13:51:12.965Z,39.03
2018-12-31T13:53:44.035Z,44.87
2018-12-31T13:56:17.537Z,34.10
2018-12-31T13:58:48.022Z,32.80
2018-12-31T14:01:19.297Z,30.00
2018-12-31T14:03:50.294Z,29.50
2018-12-31T14:06:21.648Z,36.77
2018-12-31T14:08:52.703Z,29.30
2018-12-31T14:11:23.661Z,29.77
2018-12-31T14:13:54.934Z,33.33
2018-12-31T14:16:26.292Z,35.43
2018-12-31T14:18:58.569Z,38.27
2018-12-31T14:21:29.631Z,31.87
2018-12-31T14:24:00.560Z,27.87
2018-12-31T14:26:31.997Z,30.80
2018-12-31T14:29:26.761Z,25.87
2018-12-31T14:32:00.811Z,25.67
2018-12-31T14:34:32.264Z,27.37
2018-12-31T14:37:03.336Z,29.03
2018-12-31T14:39:34.475Z,24.67
2018-12-31T14:42:05.497Z,29.90
2018-12-31T14:44:36.516Z,29.63
2018-12-31T14:47:07.603Z,39.60
2018-12-31T14:49:46.861Z,44.43
2018-12-31T14:52:17.892Z,44.80
2018-12-31T14:54:49.168Z,45.97
2018-12-31T14:57:20.217Z,54.97
2018-12-31T14:59:51.488Z,62.23
2018-12-31T15:02:22.522Z,56.73
2018-12-31T15:05:01.206Z,52.63
2018-12-31T15:07:32.531Z,51.37
2018-12-31T15:10:03.633Z,45.87
2018-12-31T15:12:34.723Z,45.17
2018-12-31T15:15:06.032Z,38.80
2018-12-31T15:17:37.717Z,36.70
2018-12-31T15:20:11.145Z,42.40
2018-12-31T15:22:43.420Z,37.60
2018-12-31T15:25:14.441Z,35.17
2018-12-31T15:27:45.496Z,42.97
2018-12-31T15:30:16.513Z,41.47
2018-12-31T15:32:47.446Z,36.13
2018-12-31T15:35:18.460Z,29.10
2018-12-31T15:37:49.539Z,37.30
2018-12-31T15:40:20.566Z,41.17
2018-12-31T15:42:51.621Z,39.33
2018-12-31T15:45:22.634Z,39.37
2018-12-31T15:47:54.033Z,36.40
2018-12-31T15:50:24.985Z,40.20
2018-12-31T15:52:55.974Z,68.83
2018-12-31T15:55:26.927Z,56.43
2018-12-31T15:57:57.878Z,55.60
2018-12-31T16:00:31.792Z,58.67
2018-12-31T16:03:02.714Z,54.00
2018-12-31T16:05:33.636Z,49.87
2018-12-31T16:08:04.831Z,33.27
2018-12-31T16:10:35.804Z,33.17
2018-12-31T16:13:06.911Z,27.90
2018-12-31T16:15:38.663Z,28.50
2018-12-31T16:18:09.661Z,30.17
2018-12-31T16:20:40.915Z,39.47
2018-12-31T16:23:11.839Z,34.00
2018-12-31T16:25:42.776Z,33.27
2018-12-31T16:28:13.757Z,35.63
2018-12-31T16:30:45.006Z,31.27
2018-12-31T16:33:16.006Z,35.83
2018-12-31T16:35:47.007Z,29.40
2018-12-31T16:38:17.936Z,38.87
2018-12-31T16:40:48.943Z,38.70
2018-12-31T16:43:19.892Z,35.93
2018-12-31T16:45:50.996Z,34.63
2018-12-31T16:48:22.019Z,36.70
2018-12-31T16:50:52.954Z,40.90
2018-12-31T16:53:24.337Z,42.90
2018-12-31T16:55:55.257Z,42.60
2018-12-31T16:58:26.180Z,46.17
2018-12-31T17:00:57.211Z,49.20
2018-12-31T17:03:28.244Z,60.30
2018-12-31T17:05:59.192Z,61.83
2018-12-31T17:08:30.127Z,65.77
2018-12-31T17:11:01.070Z,51.77
2018-12-31T17:13:32.010Z,46.90
2018-12-31T17:16:02.944Z,45.77
2018-12-31T17:18:33.908Z,41.90
2018-12-31T17:21:04.984Z,48.03
2018-12-31T17:23:36.058Z,46.30
2018-12-31T17:26:07.193Z,45.37
2018-12-31T17:28:38.246Z,41.10
2018-12-31T17:31:09.196Z,39.57
2018-12-31T17:33:40.184Z,40.33
2018-12-31T17:36:16.613Z,43.10
2018-12-31T17:38:49.003Z,40.67
2018-12-31T17:41:20.182Z,45.00
2018-12-31T17:43:51.341Z,41.60
2018-12-31T17:46:22.343Z,49.07
2018-12-31T17:48:53.624Z,47.83
2018-12-31T17:51:24.564Z,39.80
2018-12-31T17:53:55.524Z,40.03
2018-12-31T17:56:26.549Z,46.57
2018-12-31T17:58:57.689Z,33.47
2018-12-31T18:01:28.645Z,38.30
2018-12-31T18:03:59.560Z,38.63
2018-12-31T18:06:30.521Z,37.83
2018-12-31T18:09:03.599Z,35.37
2018-12-31T18:11:35.245Z,37.20
2018-12-31T18:14:06.210Z,37.83
2018-12-31T18:16:37.177Z,37.93
2018-12-31T18:19:08.267Z,36.77
2018-12-31T18:21:39.638Z,33.37
2018-12-31T18:24:10.690Z,37.40
2018-12-31T18:26:41.631Z,39.33
2018-12-31T18:29:12.618Z,37.83
2018-12-31T18:31:43.677Z,37.77
2018-12-31T18:34:14.769Z,33.53
2018-12-31T18:36:45.720Z,44.07
2018-12-31T18:39:16.745Z,37.43
2018-12-31T18:41:47.750Z,40.90
2018-12-31T18:44:18.868Z,40.00
2018-12-31T18:46:50.212Z,42.07
2018-12-31T18:49:21.224Z,51.00
2018-12-31T18:51:52.182Z,61.73
2018-12-31T18:54:23.170Z,65.47
2018-12-31T18:56:54.153Z,71.87
2018-12-31T18:59:25.105Z,78.83
2018-12-31T19:01:56.132Z,76.50
2018-12-31T19:04:27.098Z,81.63
2018-12-31T19:06:58.380Z,111.90
2018-12-31T19:09:29.432Z,125.20
2018-12-31T19:12:00.436Z,126.83
2018-12-31T19:14:31.393Z,134.53
2018-12-31T19:17:02.456Z,115.43
2018-12-31T19:19:33.573Z,107.60
2018-12-31T19:22:04.643Z,93.57
2018-12-31T19:24:35.625Z,95.30
2018-12-31T19:27:06.679Z,102.30
2018-12-31T19:29:37.617Z,99.30
2018-12-31T19:32:08.657Z,93.70
2018-12-31T19:34:39.686Z,101.47
2018-12-31T19:37:10.773Z,96.97
2018-12-31T19:39:41.816Z,99.53
2018-12-31T19:42:12.756Z,90.50
2018-12-31T19:44:43.716Z,80.33
2018-12-31T19:47:14.687Z,88.77
2018-12-31T19:49:45.657Z,75.00
2018-12-31T19:52:16.584Z,83.63
2018-12-31T19:54:47.578Z,70.57
2018-12-31T19:57:18.528Z,78.37
2018-12-31T19:59:49.468Z,74.50
2018-12-31T20:02:20.668Z,68.83
2018-12-31T20:04:51.617Z,72.13
2018-12-31T20:07:22.550Z,78.50
2018-12-31T20:09:53.487Z,73.00
2018-12-31T20:12:25.495Z,78.27
2018-12-31T20:14:56.448Z,83.70
2018-12-31T20:17:27.397Z,80.73
2018-12-31T20:19:58.330Z,93.00
2018-12-31T20:22:29.296Z,81.13
2018-12-31T20:25:00.751Z,83.03
2018-12-31T20:27:31.643Z,81.37
2018-12-31T20:30:02.594Z,83.13
2018-12-31T20:32:33.618Z,84.73
2018-12-31T20:35:05.529Z,83.73
2018-12-31T20:37:36.644Z,88.60
2018-12-31T20:40:07.613Z,80.07
2018-12-31T20:42:38.697Z,90.10
2018-12-31T20:45:09.634Z,87.07
2018-12-31T20:47:40.597Z,85.07
2018-12-31T20:50:11.534Z,91.03
2018-12-31T20:52:42.538Z,92.10
2018-12-31T20:55:13.476Z,87.57
2018-12-31T20:57:44.387Z,95.10
2018-12-31T21:00:15.385Z,83.57
2018-12-31T21:02:46.373Z,131.87
2018-12-31T21:05:17.325Z,94.27
2018-12-31T21:07:48.399Z,84.97
2018-12-31T21:10:19.507Z,80.30
2018-12-31T21:12:50.719Z,74.60
2018-12-31T21:15:21.634Z,77.77
2018-12-31T21:17:52.671Z,82.17
2018-12-31T21:20:23.688Z,72.13
2018-12-31T21:22:54.725Z,75.33
2018-12-31T21:25:25.676Z,73.43
2018-12-31T21:27:56.719Z,81.70
2018-12-31T21:30:27.724Z,78.70
2018-12-31T21:32:58.777Z,82.03
2018-12-31T21:35:31.072Z,92.77
2018-12-31T21:38:02.167Z,85.97
2018-12-31T21:40:33.108Z,86.90
2018-12-31T21:43:04.123Z,84.57
2018-12-31T21:45:35.086Z,79.73
2018-12-31T21:48:06.065Z,84.53
2018-12-31T21:50:37.075Z,86.17
2018-12-31T21:53:08.067Z,80.13
2018-12-31T21:55:39.117Z,79.77
2018-12-31T21:58:10.349Z,80.33
2018-12-31T22:00:41.382Z,77.70
2018-12-31T22:03:12.324Z,87.67
2018-12-31T22:05:43.374Z,87.33
2018-12-31T22:08:14.443Z,84.57
2018-12-31T22:10:45.418Z,79.90
2018-12-31T22:13:16.373Z,84.87
2018-12-31T22:15:47.414Z,79.67
2018-12-31T22:18:18.467Z,79.17
2018-12-31T22:20:50.527Z,86.57
2018-12-31T22:23:21.634Z,86.83
2018-12-31T22:25:52.641Z,69.40
2018-12-31T22:28:23.735Z,72.97
2018-12-31T22:30:54.706Z,75.10
2018-12-31T22:33:25.718Z,64.30
2018-12-31T22:35:56.693Z,62.53
2018-12-31T22:38:27.835Z,77.97
2018-12-31T22:40:58.788Z,168.70
2018-12-31T22:43:30.081Z,67.60
2018-12-31T22:46:01.010Z,68.57
2018-12-31T22:48:32.008Z,63.47
2018-12-31T22:51:03.024Z,58.73
2018-12-31T22:53:34.038Z,68.97
2018-12-31T22:56:05.018Z,75.50
2018-12-31T22:58:35.974Z,149.83
2018-12-31T23:01:07.014Z,73.73
2018-12-31T23:03:38.225Z,91.03
2018-12-31T23:06:09.394Z,72.97
2018-12-31T23:08:40.337Z,81.20
2018-12-31T23:11:11.313Z,84.00
2018-12-31T23:13:42.955Z,118.30
2018-12-31T23:16:17.701Z,95.80
2018-12-31T23:18:48.634Z,101.90
2018-12-31T23:21:19.557Z,95.87
2018-12-31T23:23:50.522Z,107.97
2018-12-31T23:26:22.023Z,109.43
2018-12-31T23:28:53.038Z,108.63
2018-12-31T23:31:24.130Z,105.37
2018-12-31T23:33:55.459Z,100.70
2018-12-31T23:36:26.413Z,107.33
2018-12-31T23:39:05.061Z,97.63
2018-12-31T23:41:30.097Z,104.23
2018-12-31T23:44:01.047Z,106.53
2018-12-31T23:46:32.081Z,102.23
2018-12-31T23:49:03.309Z,98.73
2018-12-31T23:51:34.342Z,106.77
2018-12-31T23:54:05.342Z,120.83
2018-12-31T23:56:36.337Z,116.53
2018-12-31T23:59:07.273Z,121.90
